createdAt,value
2023-04-03T00:08:15.859Z,-0.57
2023-04-03T00:18:19.578Z,-0.73
2023-04-03T00:28:24.143Z,-0.81
2023-04-03T00:38:29.544Z,-0.87
2023-04-03T00:48:41.924Z,-0.97
2023-04-03T00:58:52.434Z,-1.08
2023-04-03T01:08:57.604Z,-1.16
2023-04-03T01:19:02.865Z,-1.20
2023-04-03T01:29:08.615Z,-1.20
2023-04-03T01:39:14.152Z,-1.26
2023-04-03T01:49:19.394Z,-1.33
2023-04-03T01:59:23.354Z,-1.40
2023-04-03T02:09:31.186Z,-1.53
2023-04-03T02:19:35.320Z,-1.59
2023-04-03T02:29:39.645Z,-1.63
2023-04-03T02:39:45.312Z,-1.71
2023-04-03T02:49:49.337Z,-1.73
2023-04-03T02:59:53.080Z,-1.76
2023-04-03T03:10:00.182Z,-1.80
2023-04-03T03:20:05.435Z,-1.83
2023-04-03T03:30:12.436Z,-1.89
2023-04-03T03:40:16.639Z,-1.91
2023-04-03T03:50:26.125Z,-1.98
2023-04-03T04:00:30.276Z,-2.03
2023-04-03T04:10:39.890Z,-2.01
2023-04-03T04:20:48.382Z,-2.07
2023-04-03T04:30:53.798Z,-2.08
2023-04-03T04:40:58.396Z,-1.95
2023-04-03T04:51:02.794Z,-1.91
2023-04-03T05:01:11.648Z,-1.86
2023-04-03T05:11:34.218Z,-1.58
2023-04-03T05:21:38.180Z,-1.51
2023-04-03T05:31:52.085Z,-1.30
2023-04-03T05:41:56.041Z,-1.04
2023-04-03T05:51:59.892Z,-1.03
2023-04-03T06:02:06.298Z,-0.74
2023-04-03T06:12:10.941Z,-0.66
2023-04-03T06:22:16.007Z,-0.61
2023-04-03T06:32:19.746Z,-0.23
2023-04-03T06:42:24.168Z,-0.20
2023-04-03T06:52:37.133Z,0.09
2023-04-03T07:02:41.423Z,0.14
2023-04-03T07:12:45.318Z,0.26
2023-04-03T07:22:49.071Z,0.53
2023-04-03T07:32:52.816Z,0.59
2023-04-03T07:42:57.745Z,0.99
2023-04-03T07:53:02.050Z,1.29
2023-04-03T08:03:09.027Z,1.61
2023-04-03T08:13:14.091Z,1.80
2023-04-03T08:23:20.080Z,2.01
2023-04-03T08:33:25.074Z,2.44
2023-04-03T08:43:44.505Z,2.24
2023-04-03T08:53:58.370Z,2.09
2023-04-03T09:04:03.499Z,2.27
2023-04-03T09:14:27.238Z,2.32
2023-04-03T09:24:33.973Z,2.26
2023-04-03T09:34:38.020Z,2.31
2023-04-03T09:44:41.851Z,2.61
2023-04-03T09:54:45.973Z,2.87
2023-04-03T10:05:06.236Z,3.00
2023-04-03T10:15:21.394Z,3.47
2023-04-03T10:25:47.748Z,3.49
2023-04-03T10:36:13.163Z,3.57
2023-04-03T10:46:35.703Z,3.68
2023-04-03T10:57:04.621Z,3.98
2023-04-03T11:07:24.624Z,4.30
2023-04-03T11:17:39.631Z,4.21
2023-04-03T11:27:50.914Z,4.42
2023-04-03T11:37:56.022Z,4.18
2023-04-03T11:48:24.521Z,4.21
2023-04-03T11:58:34.207Z,4.37
2023-04-03T12:08:42.442Z,4.74
2023-04-03T12:18:59.692Z,4.90
2023-04-03T12:29:14.188Z,4.77
2023-04-03T12:40:22.345Z,5.11
2023-04-03T12:50:31.601Z,4.67
2023-04-03T13:00:40.089Z,4.85
2023-04-03T13:11:02.179Z,4.29
2023-04-03T13:21:09.936Z,4.32
2023-04-03T13:31:15.321Z,4.96
2023-04-03T13:41:25.093Z,4.41
